createdAt,value
2023-01-15T00:02:06.907Z,7.38
2023-01-15T00:04:33.834Z,7.35
2023-01-15T00:07:00.279Z,6.49
2023-01-15T00:09:26.812Z,7.28
2023-01-15T00:11:53.322Z,7.39
2023-01-15T00:14:19.789Z,7.28
2023-01-15T00:16:51.162Z,7.15
2023-01-15T00:19:17.779Z,7.11
2023-01-15T00:21:44.270Z,7.06
2023-01-15T00:24:29.330Z,7.42
2023-01-15T00:27:14.298Z,7.25
2023-01-15T00:29:40.868Z,7.30
2023-01-15T00:32:08.557Z,7.38
2023-01-15T00:34:36.083Z,7.34
2023-01-15T00:37:02.747Z,7.28
2023-01-15T00:39:33.509Z,6.89
2023-01-15T00:42:00.146Z,7.42
2023-01-15T00:44:26.729Z,7.11
2023-01-15T00:46:53.266Z,7.50
2023-01-15T00:49:21.269Z,7.36
2023-01-15T00:51:50.037Z,7.36
2023-01-15T00:54:17.169Z,7.40
2023-01-15T00:56:44.713Z,7.14
2023-01-15T00:59:11.782Z,7.35
2023-01-15T01:01:39.161Z,7.37
2023-01-15T01:04:06.371Z,7.38
2023-01-15T01:06:34.755Z,6.94
2023-01-15T01:09:01.333Z,7.00
2023-01-15T01:11:34.650Z,7.33
2023-01-15T01:14:02.572Z,7.27
2023-01-15T01:16:31.994Z,7.50
2023-01-15T01:19:00.048Z,6.73
2023-01-15T01:21:27.971Z,7.48
2023-01-15T01:23:55.062Z,7.49
2023-01-15T01:26:22.156Z,7.38
2023-01-15T01:28:52.931Z,7.58
2023-01-15T01:31:21.166Z,7.62
2023-01-15T01:33:52.251Z,7.64
2023-01-15T01:36:19.600Z,7.55
2023-01-15T01:38:51.973Z,7.63
2023-01-15T01:41:19.111Z,7.77
2023-01-15T01:43:56.480Z,7.75
2023-01-15T01:46:23.579Z,7.69
2023-01-15T01:48:53.876Z,7.40
2023-01-15T01:51:24.194Z,7.75
2023-01-15T01:53:51.068Z,7.78
2023-01-15T01:56:18.759Z,7.55
2023-01-15T01:58:50.719Z,7.71
2023-01-15T02:01:17.706Z,7.76
2023-01-15T02:03:44.337Z,6.94
2023-01-15T02:06:12.892Z,7.32
2023-01-15T02:08:39.881Z,7.72
2023-01-15T02:11:11.762Z,7.71
2023-01-15T02:13:41.336Z,7.52
2023-01-15T02:16:35.447Z,7.66
2023-01-15T02:19:15.919Z,7.67
2023-01-15T02:21:56.347Z,7.66
2023-01-15T02:24:37.033Z,7.64
2023-01-15T02:27:18.203Z,7.64
2023-01-15T02:29:56.628Z,7.57
2023-01-15T02:32:45.994Z,7.44
2023-01-15T02:35:18.334Z,7.47
2023-01-15T02:37:51.733Z,7.15
2023-01-15T02:40:23.163Z,7.33
2023-01-15T02:42:50.819Z,6.72
2023-01-15T02:45:27.037Z,7.18
2023-01-15T02:47:58.417Z,7.00
2023-01-15T02:50:30.214Z,7.24
2023-01-15T02:53:03.394Z,7.16
2023-01-15T02:55:39.901Z,7.27
2023-01-15T02:58:12.048Z,6.97
2023-01-15T03:00:44.687Z,6.55
2023-01-15T03:03:17.940Z,7.24
2023-01-15T03:06:00.341Z,7.24
2023-01-15T03:08:27.359Z,6.85
2023-01-15T03:11:07.902Z,7.27
2023-01-15T03:13:42.802Z,7.27
2023-01-15T03:16:31.197Z,7.28
2023-01-15T03:19:29.736Z,7.15
2023-01-15T03:22:07.217Z,6.98
2023-01-15T03:24:51.787Z,7.03
2023-01-15T03:27:19.880Z,7.00
2023-01-15T03:29:59.157Z,6.20
2023-01-15T03:32:26.357Z,6.93
2023-01-15T03:34:55.296Z,6.91
2023-01-15T03:37:25.427Z,6.97
2023-01-15T03:39:55.927Z,7.00
2023-01-15T03:43:14.843Z,6.50
2023-01-15T03:45:45.616Z,6.91
2023-01-15T03:48:24.744Z,6.74
2023-01-15T03:51:05.168Z,6.80
2023-01-15T03:53:49.736Z,6.80
2023-01-15T03:56:29.802Z,6.07
2023-01-15T03:59:04.419Z,6.41
2023-01-15T04:01:50.113Z,5.84
2023-01-15T04:04:22.180Z,6.08
2023-01-15T04:06:49.507Z,6.72
2023-01-15T04:09:17.034Z,6.50
2023-01-15T04:11:47.234Z,6.71
2023-01-15T04:14:15.001Z,5.80
2023-01-15T04:16:44.449Z,6.36
2023-01-15T04:19:12.548Z,6.52
2023-01-15T04:21:47.085Z,6.34
2023-01-15T04:24:13.887Z,6.01
2023-01-15T04:26:40.352Z,6.21
2023-01-15T04:29:07.194Z,5.97
2023-01-15T04:31:35.922Z,6.06
2023-01-15T04:34:03.499Z,6.27
2023-01-15T04:36:30.084Z,5.69
2023-01-15T04:39:00.291Z,5.93
2023-01-15T04:41:45.312Z,5.87
2023-01-15T04:44:11.936Z,6.25
2023-01-15T04:46:41.240Z,6.22
2023-01-15T04:49:14.840Z,6.11
2023-01-15T04:51:41.417Z,6.11
2023-01-15T04:54:09.376Z,6.09
2023-01-15T04:56:42.096Z,5.80
2023-01-15T04:59:09.247Z,5.79
2023-01-15T05:01:37.644Z,5.79
2023-01-15T05:04:04.721Z,5.90
2023-01-15T05:06:31.453Z,5.64
2023-01-15T05:09:02.589Z,5.83
2023-01-15T05:11:29.929Z,5.81
2023-01-15T05:13:56.778Z,5.74
2023-01-15T05:16:26.547Z,5.80
2023-01-15T05:18:56.748Z,5.87
2023-01-15T05:21:26.742Z,5.56
2023-01-15T05:23:55.495Z,5.79
2023-01-15T05:26:22.921Z,5.03
2023-01-15T05:28:49.808Z,5.27
2023-01-15T05:31:18.448Z,5.40
2023-01-15T05:33:46.661Z,4.81
2023-01-15T05:36:20.001Z,5.45
2023-01-15T05:38:46.968Z,5.27
2023-01-15T05:41:34.983Z,5.11
2023-01-15T05:44:05.805Z,5.51
2023-01-15T05:46:35.162Z,5.10
2023-01-15T05:49:03.594Z,4.99
2023-01-15T05:51:30.332Z,5.39
2023-01-15T05:53:57.957Z,5.35
2023-01-15T05:56:24.861Z,5.09
2023-01-15T05:58:51.929Z,5.00
2023-01-15T06:01:18.506Z,5.32
2023-01-15T06:03:45.085Z,5.21
2023-01-15T06:06:14.433Z,4.84
2023-01-15T06:08:41.399Z,5.04
2023-01-15T06:11:07.973Z,4.64
2023-01-15T06:13:35.166Z,5.14
2023-01-15T06:16:02.317Z,5.22
2023-01-15T06:18:29.498Z,5.19
2023-01-15T06:20:56.037Z,5.20
2023-01-15T06:23:22.579Z,5.05
2023-01-15T06:25:49.087Z,4.82
2023-01-15T06:28:15.549Z,4.30
2023-01-15T06:30:42.084Z,4.82
2023-01-15T06:33:08.694Z,5.13
2023-01-15T06:35:35.427Z,4.83
2023-01-15T06:38:01.935Z,4.64
2023-01-15T06:40:29.160Z,4.64
2023-01-15T06:43:17.737Z,4.62
2023-01-15T06:46:03.208Z,4.95
2023-01-15T06:48:30.934Z,4.82
2023-01-15T06:50:57.704Z,4.84
2023-01-15T06:53:24.191Z,4.91
2023-01-15T06:55:50.720Z,4.79
2023-01-15T06:58:17.451Z,4.81
2023-01-15T07:00:45.358Z,4.82
2023-01-15T07:03:14.352Z,4.23
2023-01-15T07:05:41.426Z,4.14
2023-01-15T07:08:08.340Z,4.60
2023-01-15T07:10:35.561Z,4.69
2023-01-15T07:13:02.299Z,4.34
2023-01-15T07:15:28.840Z,4.55
2023-01-15T07:17:56.480Z,4.66
2023-01-15T07:20:23.528Z,4.59
2023-01-15T07:22:51.550Z,4.61
2023-01-15T07:25:18.598Z,4.61
2023-01-15T07:27:49.190Z,4.42
2023-01-15T07:30:15.946Z,4.47
2023-01-15T07:32:42.518Z,4.46
2023-01-15T07:35:10.267Z,3.67
2023-01-15T07:37:37.811Z,4.47
2023-01-15T07:40:04.968Z,4.52
2023-01-15T07:42:50.099Z,4.51
2023-01-15T07:45:39.071Z,4.50
2023-01-15T07:48:29.278Z,4.38
2023-01-15T07:50:55.950Z,4.01
2023-01-15T07:53:22.418Z,4.51
2023-01-15T07:55:48.949Z,3.96
2023-01-15T07:58:15.526Z,4.38
2023-01-15T08:00:42.087Z,4.34
2023-01-15T08:03:09.819Z,4.21
2023-01-15T08:05:36.716Z,3.92
2023-01-15T08:08:13.978Z,4.12
2023-01-15T08:11:00.425Z,4.16
2023-01-15T08:13:46.770Z,4.19
2023-01-15T08:16:13.693Z,4.26
2023-01-15T08:18:41.362Z,4.31
2023-01-15T08:21:13.689Z,4.29
2023-01-15T08:23:43.437Z,4.18
2023-01-15T08:26:15.735Z,4.03
2023-01-15T08:28:43.563Z,3.97
2023-01-15T08:31:14.663Z,4.06
2023-01-15T08:33:41.570Z,4.09
2023-01-15T08:36:11.487Z,3.88
2023-01-15T08:39:01.064Z,3.67
2023-01-15T08:41:28.196Z,3.85
2023-01-15T08:43:56.124Z,3.95
2023-01-15T08:46:23.302Z,4.26
2023-01-15T08:48:50.157Z,3.18
2023-01-15T08:51:17.032Z,4.23
2023-01-15T08:53:43.933Z,4.23
2023-01-15T08:56:15.429Z,4.30
2023-01-15T08:58:43.831Z,4.22
2023-01-15T09:01:15.731Z,3.66
2023-01-15T09:03:49.708Z,4.29
2023-01-15T09:06:16.235Z,4.04
2023-01-15T09:08:45.252Z,4.38
2023-01-15T09:11:13.289Z,4.31
2023-01-15T09:13:44.250Z,4.14
2023-01-15T09:16:11.951Z,4.22
2023-01-15T09:18:43.329Z,3.81
2023-01-15T09:21:13.112Z,4.26
2023-01-15T09:23:41.994Z,3.89
2023-01-15T09:26:26.574Z,4.15
2023-01-15T09:28:56.591Z,4.25
2023-01-15T09:31:27.126Z,4.21
2023-01-15T09:33:55.249Z,3.65
2023-01-15T09:36:31.329Z,4.21
2023-01-15T09:38:59.324Z,3.83
2023-01-15T09:42:04.789Z,3.82
2023-01-15T09:44:47.867Z,4.21
2023-01-15T09:47:48.243Z,4.16
2023-01-15T09:50:45.201Z,4.01
2023-01-15T09:53:30.677Z,4.29
2023-01-15T09:56:01.781Z,4.30
2023-01-15T09:58:38.532Z,4.17
2023-01-15T10:01:07.437Z,4.15
2023-01-15T10:03:48.365Z,3.92
2023-01-15T10:06:48.003Z,4.03
2023-01-15T10:09:35.040Z,4.12
2023-01-15T10:12:35.632Z,4.14
2023-01-15T10:15:42.219Z,4.16
2023-01-15T10:18:18.002Z,4.09
2023-01-15T10:21:10.356Z,4.11
2023-01-15T10:24:05.756Z,4.10
2023-01-15T10:26:43.132Z,4.18
2023-01-15T10:29:23.641Z,3.77
2023-01-15T10:32:01.505Z,4.11
2023-01-15T10:34:55.859Z,3.78
2023-01-15T10:37:42.080Z,4.06
2023-01-15T10:40:14.852Z,3.99
2023-01-15T10:43:15.443Z,3.97
2023-01-15T10:45:51.496Z,3.84
2023-01-15T10:48:53.986Z,3.99
2023-01-15T10:51:29.662Z,4.18
2023-01-15T10:54:07.444Z,4.25
2023-01-15T10:56:50.154Z,4.31
2023-01-15T10:59:37.171Z,3.36
2023-01-15T11:02:20.070Z,3.29
2023-01-15T11:04:46.622Z,3.39
2023-01-15T11:07:15.003Z,3.39
2023-01-15T11:09:48.191Z,3.03
2023-01-15T11:16:38.330Z,2.12
2023-01-15T11:19:36.140Z,2.65
2023-01-15T11:22:15.860Z,2.60
2023-01-15T11:24:48.597Z,2.85
2023-01-15T11:27:20.881Z,2.69
2023-01-15T11:30:00.385Z,2.34
2023-01-15T11:32:35.420Z,2.68
2023-01-15T11:35:18.397Z,2.61
2023-01-15T11:37:48.066Z,2.04
2023-01-15T11:40:26.170Z,2.57
2023-01-15T11:43:12.543Z,2.42
2023-01-15T11:46:10.635Z,2.59
2023-01-15T11:49:04.328Z,2.41
2023-01-15T11:51:41.293Z,2.65
2023-01-15T11:54:13.026Z,2.58
2023-01-15T11:56:43.562Z,2.74
2023-01-15T11:59:18.343Z,2.77
2023-01-15T12:02:04.039Z,2.69
2023-01-15T12:05:03.491Z,2.91
2023-01-15T12:07:31.663Z,2.65
2023-01-15T12:10:51.241Z,2.92
2023-01-15T12:13:29.787Z,2.56
2023-01-15T12:16:15.128Z,3.15
2023-01-15T12:18:50.361Z,3.30
2023-01-15T12:21:58.056Z,3.41
2023-01-15T12:24:45.658Z,3.51
2023-01-15T12:27:24.332Z,3.55
2023-01-15T12:29:58.365Z,3.45
2023-01-15T12:32:33.045Z,3.51
2023-01-15T12:35:06.153Z,3.60
2023-01-15T12:37:47.791Z,3.77
2023-01-15T12:40:14.285Z,3.96
2023-01-15T12:43:01.424Z,3.56
2023-01-15T12:45:59.820Z,4.04
2023-01-15T12:48:44.330Z,4.09
2023-01-15T12:51:24.388Z,4.00
2023-01-15T12:53:55.699Z,3.72
2023-01-15T12:56:32.889Z,3.39
2023-01-15T12:59:18.011Z,3.92
2023-01-15T13:02:01.165Z,3.98
2023-01-15T13:04:44.766Z,3.91
2023-01-15T13:07:25.873Z,3.79
2023-01-15T13:10:00.589Z,3.45
2023-01-15T13:12:29.563Z,3.68
2023-01-15T13:14:56.677Z,3.69
2023-01-15T13:18:01.376Z,4.03
2023-01-15T13:20:43.240Z,3.54
2023-01-15T13:23:19.163Z,3.31
2023-01-15T13:26:24.093Z,3.69
2023-01-15T13:29:21.461Z,3.53
2023-01-15T13:31:58.740Z,3.89
2023-01-15T13:34:27.944Z,3.40
2023-01-15T13:36:59.503Z,3.46
2023-01-15T13:39:38.540Z,3.96
2023-01-15T13:42:25.222Z,3.99
2023-01-15T13:44:54.526Z,3.94
2023-01-15T13:47:27.644Z,3.79
2023-01-15T13:50:00.817Z,3.89
2023-01-15T13:52:37.981Z,3.38
2023-01-15T13:55:10.267Z,3.76
2023-01-15T13:57:41.090Z,3.57
2023-01-15T14:00:38.996Z,3.21
2023-01-15T14:03:30.030Z,3.30
2023-01-15T14:06:07.445Z,3.52
2023-01-15T14:08:42.918Z,3.49
2023-01-15T14:11:48.797Z,3.45
2023-01-15T14:15:03.959Z,3.46
2023-01-15T14:18:02.481Z,3.49
2023-01-15T14:21:04.079Z,3.12
2023-01-15T14:23:53.072Z,3.59
2023-01-15T14:26:27.355Z,3.63
2023-01-15T14:29:02.864Z,3.58
2023-01-15T14:31:54.519Z,3.38
2023-01-15T14:34:28.679Z,3.43
2023-01-15T14:37:04.655Z,2.67
2023-01-15T14:39:41.885Z,3.68
2023-01-15T14:42:43.424Z,3.73
2023-01-15T14:45:13.026Z,3.61
2023-01-15T14:47:49.336Z,3.65
2023-01-15T14:50:28.133Z,3.46
2023-01-15T14:53:21.684Z,3.65
2023-01-15T14:56:23.890Z,3.70
2023-01-15T14:59:14.590Z,3.90
2023-01-15T15:01:50.584Z,3.72
2023-01-15T15:04:31.381Z,3.71
2023-01-15T15:07:02.201Z,3.28
2023-01-15T15:09:48.750Z,3.61
2023-01-15T15:12:41.796Z,3.43
2023-01-15T15:15:17.642Z,3.69
2023-01-15T15:18:02.911Z,3.57
2023-01-15T15:20:54.206Z,3.58
2023-01-15T15:23:28.036Z,3.54
2023-01-15T15:26:01.499Z,3.50
2023-01-15T15:28:30.475Z,3.11
2023-01-15T15:31:01.720Z,3.33
2023-01-15T15:33:40.296Z,3.47
2023-01-15T15:36:09.847Z,2.79
2023-01-15T15:38:40.344Z,3.01
2023-01-15T15:41:12.476Z,3.47
2023-01-15T15:44:16.001Z,3.00
2023-01-15T15:47:09.408Z,3.33
2023-01-15T15:49:40.761Z,2.91
2023-01-15T15:52:24.453Z,3.23
2023-01-15T15:54:59.247Z,3.33
2023-01-15T15:57:30.423Z,3.26
2023-01-15T16:00:00.122Z,3.38
2023-01-15T16:02:36.375Z,3.44
2023-01-15T16:05:20.343Z,3.26
2023-01-15T16:07:47.775Z,3.51
2023-01-15T16:10:19.597Z,3.51
2023-01-15T16:12:56.552Z,3.54
2023-01-15T16:15:33.108Z,3.59
2023-01-15T16:18:03.498Z,3.63
2023-01-15T16:21:20.727Z,3.07
2023-01-15T16:23:31.951Z,3.58
2023-01-15T16:26:15.614Z,3.58
2023-01-15T16:28:47.517Z,3.50
2023-01-15T16:31:17.555Z,3.37
2023-01-15T16:33:44.573Z,3.37
2023-01-15T16:36:12.727Z,3.37
2023-01-15T16:38:43.490Z,2.83
2023-01-15T16:41:27.589Z,3.32
2023-01-15T16:44:03.656Z,3.31
2023-01-15T16:46:36.033Z,3.36
2023-01-15T16:49:29.038Z,3.45
2023-01-15T16:52:01.167Z,3.42
2023-01-15T16:54:31.849Z,3.45
2023-01-15T16:57:05.506Z,3.43
2023-01-15T16:59:32.090Z,3.41
2023-01-15T17:02:11.757Z,3.35
2023-01-15T17:04:42.239Z,2.88
2023-01-15T17:07:18.309Z,3.35
2023-01-15T17:09:50.769Z,3.34
2023-01-15T17:12:31.068Z,3.34
2023-01-15T17:15:16.433Z,2.76
2023-01-15T17:17:45.773Z,3.17
2023-01-15T17:20:15.498Z,3.22
2023-01-15T17:22:45.405Z,2.75
2023-01-15T17:25:27.927Z,3.18
2023-01-15T17:27:56.487Z,3.28
2023-01-15T17:30:33.498Z,2.62
2023-01-15T17:33:01.792Z,3.12
2023-01-15T17:35:32.463Z,3.21
2023-01-15T17:38:00.113Z,3.12
2023-01-15T17:40:32.715Z,3.20
2023-01-15T17:42:59.579Z,3.05
2023-01-15T17:45:30.083Z,3.01
2023-01-15T17:47:57.822Z,3.14
2023-01-15T17:50:25.246Z,3.29
2023-01-15T17:52:51.977Z,2.59
2023-01-15T17:55:40.109Z,3.11
2023-01-15T17:58:27.321Z,2.89
2023-01-15T18:01:13.788Z,3.38
2023-01-15T18:04:11.749Z,3.38
2023-01-15T18:06:42.364Z,3.14
2023-01-15T18:09:10.079Z,3.18
2023-01-15T18:11:41.344Z,3.18
2023-01-15T18:14:07.921Z,2.07
2023-01-15T18:16:35.922Z,2.85
2023-01-15T18:19:02.484Z,2.71
2023-01-15T18:21:29.003Z,2.76
2023-01-15T18:23:59.089Z,2.66
2023-01-15T18:26:25.745Z,3.03
2023-01-15T18:28:52.401Z,2.57
2023-01-15T18:31:19.004Z,2.54
2023-01-15T18:33:45.865Z,2.96
2023-01-15T18:36:14.237Z,2.93
2023-01-15T18:38:47.368Z,3.02
2023-01-15T18:41:48.533Z,2.67
2023-01-15T18:44:36.857Z,2.66
2023-01-15T18:47:06.492Z,2.91
2023-01-15T18:49:33.350Z,2.91
2023-01-15T18:52:18.500Z,2.53
2023-01-15T18:54:45.057Z,2.81
2023-01-15T18:57:12.165Z,2.58
2023-01-15T18:59:38.714Z,3.04
2023-01-15T19:02:05.815Z,2.56
2023-01-15T19:04:32.669Z,2.08
2023-01-15T19:06:59.448Z,2.99
2023-01-15T19:09:26.870Z,2.85
2023-01-15T19:11:53.839Z,2.72
2023-01-15T19:14:40.289Z,2.53
2023-01-15T19:17:29.593Z,2.34
2023-01-15T19:19:56.179Z,2.95
2023-01-15T19:22:41.199Z,2.50
2023-01-15T19:25:08.153Z,2.94
2023-01-15T19:27:34.629Z,3.03
2023-01-15T19:30:02.162Z,2.76
2023-01-15T19:32:28.730Z,2.41
2023-01-15T19:34:55.332Z,2.58
2023-01-15T19:37:22.455Z,2.21
2023-01-15T19:39:49.039Z,3.11
2023-01-15T19:42:34.127Z,2.42
2023-01-15T19:45:19.300Z,3.05
2023-01-15T19:48:04.513Z,3.07
2023-01-15T19:50:37.257Z,2.94
2023-01-15T19:53:04.699Z,3.21
2023-01-15T19:55:32.819Z,3.11
2023-01-15T19:58:05.763Z,3.31
2023-01-15T20:00:36.775Z,3.24
2023-01-15T20:03:04.669Z,3.42
2023-01-15T20:05:32.194Z,3.21
2023-01-15T20:07:59.061Z,2.88
2023-01-15T20:10:28.128Z,3.25
2023-01-15T20:13:13.755Z,3.04
2023-01-15T20:15:42.729Z,2.50
2023-01-15T20:18:09.371Z,2.63
2023-01-15T20:20:37.772Z,2.98
2023-01-15T20:23:04.981Z,2.57
2023-01-15T20:25:31.552Z,3.04
2023-01-15T20:28:02.429Z,2.88
2023-01-15T20:30:29.027Z,2.83
2023-01-15T20:32:59.896Z,2.86
2023-01-15T20:35:33.464Z,2.76
2023-01-15T20:38:00.179Z,2.69
2023-01-15T20:40:27.539Z,2.18
2023-01-15T20:43:13.221Z,2.81
2023-01-15T20:45:41.256Z,2.78
2023-01-15T20:48:11.369Z,3.00
2023-01-15T20:51:00.329Z,3.00
2023-01-15T20:53:35.841Z,3.11
2023-01-15T20:56:04.397Z,2.95
2023-01-15T20:58:32.078Z,3.02
2023-01-15T21:01:08.718Z,3.11
2023-01-15T21:03:36.769Z,2.73
2023-01-15T21:06:05.094Z,2.75
2023-01-15T21:08:33.585Z,2.97
2023-01-15T21:11:00.199Z,3.13
2023-01-15T21:13:26.862Z,2.21
2023-01-15T21:15:56.547Z,2.38
2023-01-15T21:18:24.091Z,2.38
2023-01-15T21:20:50.965Z,3.11
2023-01-15T21:23:17.473Z,2.91
2023-01-15T21:25:44.168Z,2.26
2023-01-15T21:28:10.799Z,2.62
2023-01-15T21:30:42.076Z,3.03
2023-01-15T21:33:09.017Z,2.96
2023-01-15T21:35:42.322Z,2.27
2023-01-15T21:38:09.340Z,1.71
2023-01-15T21:40:37.720Z,2.62
2023-01-15T21:43:24.035Z,2.75
2023-01-15T21:45:51.889Z,2.72
2023-01-15T21:48:18.950Z,2.53
2023-01-15T21:50:45.569Z,2.39
2023-01-15T21:53:12.056Z,2.04
2023-01-15T21:55:38.847Z,2.64
2023-01-15T21:58:05.426Z,2.53
2023-01-15T22:00:31.950Z,2.40
2023-01-15T22:02:58.635Z,1.91
2023-01-15T22:05:25.323Z,2.39
2023-01-15T22:07:51.879Z,2.41
2023-01-15T22:10:18.573Z,2.50
2023-01-15T22:12:45.116Z,2.28
2023-01-15T22:15:12.217Z,2.49
2023-01-15T22:17:38.830Z,2.37
2023-01-15T22:20:07.290Z,2.43
2023-01-15T22:22:36.407Z,1.81
2023-01-15T22:25:05.324Z,2.82
2023-01-15T22:27:34.483Z,1.78
2023-01-15T22:30:01.271Z,2.81
2023-01-15T22:32:28.025Z,2.73
2023-01-15T22:34:54.576Z,2.96
2023-01-15T22:37:21.222Z,2.95
2023-01-15T22:39:47.728Z,2.77
2023-01-15T22:42:31.231Z,2.59
2023-01-15T22:45:00.256Z,1.84
2023-01-15T22:47:29.020Z,2.18
2023-01-15T22:49:55.910Z,2.65
2023-01-15T22:52:25.247Z,2.71
2023-01-15T22:54:51.993Z,2.73
2023-01-15T22:57:18.967Z,2.43
2023-01-15T22:59:45.885Z,2.52
2023-01-15T23:02:14.009Z,2.70
2023-01-15T23:04:40.682Z,3.03
2023-01-15T23:07:07.443Z,2.96
2023-01-15T23:09:35.326Z,3.16
2023-01-15T23:12:01.876Z,3.03
2023-01-15T23:14:28.605Z,2.99
2023-01-15T23:16:55.274Z,3.22
2023-01-15T23:19:21.969Z,2.89
2023-01-15T23:21:48.501Z,2.87
2023-01-15T23:24:16.108Z,2.95
2023-01-15T23:26:42.810Z,3.00
2023-01-15T23:29:09.348Z,2.70
2023-01-15T23:31:35.983Z,3.11
2023-01-15T23:34:02.922Z,3.27
2023-01-15T23:36:29.504Z,3.15
2023-01-15T23:38:56.226Z,3.02
2023-01-15T23:41:44.831Z,3.19
2023-01-15T23:44:35.104Z,2.89
2023-01-15T23:47:02.013Z,2.50
2023-01-15T23:49:28.622Z,3.04
2023-01-15T23:51:55.347Z,3.14
2023-01-15T23:54:22.308Z,1.99
2023-01-15T23:56:49.252Z,2.98
2023-01-15T23:59:15.917Z,2.81
